createdAt,value
2022-11-20T00:05:00.290Z,-6.60
2022-11-20T00:10:08.113Z,-6.65
2022-11-20T00:15:17.555Z,-6.72
2022-11-20T00:20:24.818Z,-6.77
2022-11-20T00:25:31.645Z,-6.81
2022-11-20T00:30:38.582Z,-6.84
2022-11-20T00:35:45.413Z,-6.90
2022-11-20T00:40:59.006Z,-6.91
2022-11-20T00:46:08.119Z,-6.91
2022-11-20T00:51:16.717Z,-6.88
2022-11-20T00:56:23.658Z,-6.88
2022-11-20T01:01:31.662Z,-6.87
2022-11-20T01:06:40.945Z,-6.86
2022-11-20T01:11:48.371Z,-6.83
2022-11-20T01:16:55.786Z,-6.80
2022-11-20T01:22:02.645Z,-6.78
2022-11-20T01:27:09.477Z,-6.74
2022-11-20T01:32:16.286Z,-6.72
2022-11-20T01:37:23.344Z,-6.69
2022-11-20T01:42:48.105Z,-6.68
2022-11-20T01:47:55.086Z,-6.68
2022-11-20T01:53:06.336Z,-6.65
2022-11-20T01:58:13.892Z,-6.64
2022-11-20T02:03:22.340Z,-6.61
2022-11-20T02:08:30.118Z,-6.61
2022-11-20T02:13:46.567Z,-6.62
2022-11-20T02:18:55.866Z,-6.65
2022-11-20T02:24:09.340Z,-6.70
2022-11-20T02:29:18.252Z,-6.69
2022-11-20T02:34:25.509Z,-6.71
2022-11-20T02:39:32.598Z,-6.76
2022-11-20T02:44:39.812Z,-6.81
2022-11-20T02:49:46.738Z,-6.85
2022-11-20T02:54:53.665Z,-6.89
2022-11-20T03:00:00.643Z,-6.95
2022-11-20T03:05:08.213Z,-6.99
2022-11-20T03:10:15.291Z,-7.02
2022-11-20T03:15:22.655Z,-7.07
2022-11-20T03:20:29.531Z,-7.12
2022-11-20T03:25:36.561Z,-7.18
2022-11-20T03:30:43.589Z,-7.21
2022-11-20T03:35:50.469Z,-7.24
2022-11-20T03:41:03.049Z,-7.29
2022-11-20T03:46:10.601Z,-7.32
2022-11-20T03:51:19.812Z,-7.38
2022-11-20T03:56:30.474Z,-7.41
2022-11-20T04:01:39.010Z,-7.45
2022-11-20T04:06:45.985Z,-7.50
2022-11-20T04:11:52.770Z,-7.52
2022-11-20T04:16:59.751Z,-7.55
2022-11-20T04:22:06.583Z,-7.60
2022-11-20T04:27:13.579Z,-7.65
2022-11-20T04:32:20.578Z,-7.68
2022-11-20T04:37:28.636Z,-7.71
2022-11-20T04:42:35.572Z,-7.73
2022-11-20T04:47:42.447Z,-7.76
2022-11-20T04:52:49.283Z,-7.78
2022-11-20T04:57:56.231Z,-7.79
2022-11-20T05:03:03.119Z,-7.82
2022-11-20T05:08:10.160Z,-7.84
2022-11-20T05:13:17.077Z,-7.88
2022-11-20T05:18:24.086Z,-7.91
2022-11-20T05:23:33.265Z,-7.92
2022-11-20T05:28:40.273Z,-7.92
2022-11-20T05:33:48.143Z,-7.93
2022-11-20T05:39:01.041Z,-7.93
2022-11-20T05:44:08.932Z,-7.96
2022-11-20T05:49:15.849Z,-7.99
2022-11-20T05:54:22.836Z,-8.01
2022-11-20T05:59:30.014Z,-8.03
2022-11-20T06:04:37.063Z,-8.05
2022-11-20T06:09:44.085Z,-8.08
2022-11-20T06:14:50.923Z,-8.12
2022-11-20T06:19:57.783Z,-8.14
2022-11-20T06:25:05.127Z,-8.14
2022-11-20T06:30:14.344Z,-8.14
2022-11-20T06:35:21.293Z,-8.16
2022-11-20T06:40:28.370Z,-8.13
2022-11-20T06:45:35.167Z,-8.09
2022-11-20T06:50:42.558Z,-8.05
2022-11-20T06:55:50.894Z,-8.00
2022-11-20T07:00:59.781Z,-7.93
2022-11-20T07:06:08.013Z,-7.86
2022-11-20T07:11:16.144Z,-7.78
2022-11-20T07:16:23.015Z,-7.68
2022-11-20T07:21:30.113Z,-7.58
2022-11-20T07:26:36.974Z,-7.47
2022-11-20T07:31:43.852Z,-7.34
2022-11-20T07:36:50.761Z,-7.15
2022-11-20T07:41:57.676Z,-6.95
2022-11-20T07:47:04.868Z,-6.75
2022-11-20T07:52:11.794Z,-6.56
2022-11-20T07:57:18.695Z,-6.41
2022-11-20T08:02:25.618Z,-6.26
2022-11-20T08:07:37.478Z,-6.08
2022-11-20T08:13:07.171Z,-5.96
2022-11-20T08:18:30.771Z,-5.82
2022-11-20T08:23:39.033Z,-5.65
2022-11-20T08:28:46.301Z,-5.47
2022-11-20T08:33:53.600Z,-5.23
2022-11-20T08:39:00.458Z,-4.99
2022-11-20T08:44:09.117Z,-4.81
2022-11-20T08:49:19.070Z,-4.59
2022-11-20T08:54:26.189Z,-4.35
2022-11-20T09:00:03.896Z,-4.12
2022-11-20T09:05:00.396Z,-3.87
2022-11-20T09:10:25.560Z,-3.69
2022-11-20T09:15:32.624Z,-3.52
2022-11-20T09:20:39.457Z,-3.36
2022-11-20T09:25:46.663Z,-3.23
2022-11-20T09:30:53.468Z,-3.12
2022-11-20T09:36:00.532Z,-3.00
2022-11-20T09:41:08.888Z,-2.85
2022-11-20T09:46:27.127Z,-2.65
2022-11-20T09:51:46.032Z,-2.43
2022-11-20T09:56:56.535Z,-2.19
2022-11-20T10:02:05.065Z,-2.05
2022-11-20T10:07:34.315Z,-1.88
2022-11-20T10:12:59.115Z,-1.71
2022-11-20T10:18:24.731Z,-1.53
2022-11-20T10:24:00.409Z,-1.37
2022-11-20T10:29:15.781Z,-1.20
2022-11-20T10:34:28.138Z,-1.08
2022-11-20T10:39:37.768Z,-0.91
2022-11-20T10:45:05.950Z,-0.76
2022-11-20T10:50:22.562Z,-0.58
2022-11-20T10:55:39.706Z,-0.45
2022-11-20T11:00:46.625Z,-0.35
2022-11-20T11:05:58.923Z,-0.24
2022-11-20T11:11:20.343Z,-0.10
2022-11-20T11:16:29.798Z,0.01
2022-11-20T11:21:42.364Z,0.13
2022-11-20T11:26:58.293Z,0.22
2022-11-20T11:32:10.930Z,0.31
2022-11-20T11:37:23.876Z,0.38
2022-11-20T11:42:32.246Z,0.46
2022-11-20T11:47:49.134Z,0.59
2022-11-20T11:53:06.315Z,1.33
2022-11-20T11:58:20.005Z,3.17
2022-11-20T12:03:30.630Z,4.40
2022-11-20T12:08:46.012Z,5.12
2022-11-20T12:14:02.859Z,5.93
2022-11-20T12:19:13.343Z,5.95
2022-11-20T12:24:37.671Z,5.49
2022-11-20T12:29:57.262Z,4.77
2022-11-20T12:35:15.262Z,4.32
2022-11-20T12:40:37.858Z,4.17
2022-11-20T12:46:11.481Z,3.98
2022-11-20T12:51:46.879Z,3.72
2022-11-20T12:57:03.619Z,3.50
2022-11-20T13:02:29.740Z,3.38
2022-11-20T13:07:37.571Z,3.31
2022-11-20T13:12:50.504Z,3.15
2022-11-20T13:18:01.608Z,3.04
2022-11-20T13:23:08.706Z,2.99
2022-11-20T13:28:33.420Z,2.90
2022-11-20T13:33:41.575Z,2.74
2022-11-20T13:38:52.094Z,2.63
2022-11-20T13:44:09.082Z,2.48
2022-11-20T13:49:25.235Z,2.33
2022-11-20T13:54:59.494Z,2.27
2022-11-20T14:00:16.886Z,2.20
2022-11-20T14:05:26.471Z,2.07
2022-11-20T14:10:35.007Z,1.85
2022-11-20T14:15:46.918Z,1.79
2022-11-20T14:20:53.842Z,1.66
2022-11-20T14:26:01.937Z,1.50
2022-11-20T14:31:37.993Z,1.39
2022-11-20T14:36:46.836Z,1.16
2022-11-20T14:41:58.409Z,1.03
2022-11-20T14:47:07.098Z,0.88
2022-11-20T14:52:20.243Z,0.70
2022-11-20T14:57:30.001Z,0.52
2022-11-20T15:02:41.255Z,0.31
2022-11-20T15:07:51.028Z,0.08
2022-11-20T15:13:01.406Z,-0.15
2022-11-20T15:18:13.639Z,-0.39
2022-11-20T15:23:20.415Z,-0.63
2022-11-20T15:28:32.941Z,-0.88
2022-11-20T15:33:40.185Z,-1.09
2022-11-20T15:38:47.211Z,-1.25
2022-11-20T15:43:54.355Z,-1.45
2022-11-20T15:49:03.499Z,-1.64
2022-11-20T15:54:16.009Z,-1.79
2022-11-20T15:59:23.045Z,-1.92
2022-11-20T16:04:30.444Z,-2.04
2022-11-20T16:09:37.404Z,-2.18
2022-11-20T16:15:02.320Z,-2.34
2022-11-20T16:20:14.616Z,-2.43
2022-11-20T16:25:21.791Z,-2.58
2022-11-20T16:30:28.770Z,-2.75
2022-11-20T16:35:35.601Z,-2.77
2022-11-20T16:40:44.606Z,-2.68
2022-11-20T16:45:51.494Z,-2.73
2022-11-20T16:50:58.823Z,-2.68
2022-11-20T16:56:13.718Z,-2.74
2022-11-20T17:01:23.951Z,-2.74
2022-11-20T17:06:34.705Z,-2.59
2022-11-20T17:11:41.808Z,-2.34
2022-11-20T17:16:49.347Z,-2.20
2022-11-20T17:21:56.401Z,-2.14
2022-11-20T17:27:06.216Z,-2.13
2022-11-20T17:32:14.145Z,-2.19
2022-11-20T17:37:24.042Z,-2.23
2022-11-20T17:42:37.438Z,-2.33
2022-11-20T17:47:46.663Z,-2.40
2022-11-20T17:52:53.883Z,-2.40
2022-11-20T17:58:02.936Z,-2.36
2022-11-20T18:03:10.231Z,-2.34
2022-11-20T18:08:17.376Z,-2.34
2022-11-20T18:13:48.071Z,-2.41
2022-11-20T18:19:00.667Z,-2.49
2022-11-20T18:24:06.633Z,-2.57
2022-11-20T18:29:14.268Z,-2.69
2022-11-20T18:34:21.864Z,-2.85
2022-11-20T18:39:36.740Z,-3.01
2022-11-20T18:44:54.117Z,-3.19
2022-11-20T18:50:02.699Z,-3.37
2022-11-20T18:55:12.880Z,-3.56
2022-11-20T19:00:24.395Z,-3.71
2022-11-20T19:05:31.482Z,-3.83
2022-11-20T19:10:39.087Z,-3.91
2022-11-20T19:15:46.251Z,-3.94
2022-11-20T19:20:53.354Z,-3.93
2022-11-20T19:26:02.699Z,-3.92
2022-11-20T19:31:18.149Z,-3.95
2022-11-20T19:36:30.830Z,-3.96
2022-11-20T19:41:39.476Z,-3.97
2022-11-20T19:46:47.406Z,-4.01
2022-11-20T19:51:54.411Z,-4.11
2022-11-20T19:57:01.414Z,-4.22
2022-11-20T20:02:10.687Z,-4.32
2022-11-20T20:07:17.821Z,-4.42
2022-11-20T20:12:25.060Z,-4.55
2022-11-20T20:17:31.983Z,-4.67
2022-11-20T20:22:38.845Z,-4.75
2022-11-20T20:27:46.055Z,-4.82
2022-11-20T20:32:56.326Z,-4.90
2022-11-20T20:38:03.773Z,-5.01
2022-11-20T20:43:10.986Z,-5.10
2022-11-20T20:48:19.319Z,-5.21
2022-11-20T20:53:27.526Z,-5.23
2022-11-20T20:58:34.524Z,-5.20
2022-11-20T21:03:41.477Z,-5.18
2022-11-20T21:08:48.709Z,-5.21
2022-11-20T21:13:55.944Z,-5.12
2022-11-20T21:19:05.178Z,-5.14
2022-11-20T21:24:12.313Z,-5.17
2022-11-20T21:29:19.242Z,-5.27
2022-11-20T21:34:26.959Z,-5.36
2022-11-20T21:39:33.967Z,-5.42
2022-11-20T21:44:41.101Z,-5.35
2022-11-20T21:49:50.552Z,-5.37
2022-11-20T21:54:57.822Z,-5.35
2022-11-20T22:00:05.618Z,-5.33
2022-11-20T22:05:15.972Z,-5.32
2022-11-20T22:10:23.215Z,-5.27
2022-11-20T22:15:58.857Z,-5.21
2022-11-20T22:20:56.993Z,-5.28
2022-11-20T22:26:09.551Z,-5.38
2022-11-20T22:31:16.609Z,-5.26
2022-11-20T22:36:25.648Z,-5.43
2022-11-20T22:41:33.853Z,-5.52
2022-11-20T22:46:40.890Z,-5.62
2022-11-20T22:51:47.758Z,-5.68
2022-11-20T22:56:54.678Z,-5.73
2022-11-20T23:02:01.616Z,-5.78
2022-11-20T23:07:08.716Z,-5.83
2022-11-20T23:12:18.260Z,-5.90
2022-11-20T23:17:25.158Z,-5.95
2022-11-20T23:22:34.276Z,-6.06
2022-11-20T23:27:41.287Z,-6.17
2022-11-20T23:32:48.955Z,-6.20
2022-11-20T23:37:55.867Z,-6.23
2022-11-20T23:43:18.264Z,-6.32
2022-11-20T23:48:27.037Z,-6.42
2022-11-20T23:53:34.410Z,-6.46
2022-11-20T23:58:41.633Z,-6.54
